sensor_id;sensor_type;location;lat;lon;timestamp;P1;durP1;ratioP1;P2;durP2;ratioP2
36415;SDS011;22447;44.530;18.620;2023-06-10T00:00:42;24.52;;;14.98;;
36415;SDS011;22447;44.530;18.620;2023-06-10T00:03:09;34.45;;;18.13;;
36415;SDS011;22447;44.530;18.620;2023-06-10T00:05:35;29.65;;;17.50;;
36415;SDS011;22447;44.530;18.620;2023-06-10T00:08:04;39.17;;;15.90;;
36415;SDS011;22447;44.530;18.620;2023-06-10T00:10:34;31.60;;;15.65;;
36415;SDS011;22447;44.530;18.620;2023-06-10T00:13:01;21.17;;;13.45;;
36415;SDS011;22447;44.530;18.620;2023-06-10T00:15:29;23.70;;;13.68;;
36415;SDS011;22447;44.530;18.620;2023-06-10T00:17:55;24.13;;;13.35;;
36415;SDS011;22447;44.530;18.620;2023-06-10T00:20:21;28.05;;;13.15;;
36415;SDS011;22447;44.530;18.620;2023-06-10T00:22:49;20.55;;;13.23;;
36415;SDS011;22447;44.530;18.620;2023-06-10T00:25:16;19.88;;;12.05;;
36415;SDS011;22447;44.530;18.620;2023-06-10T00:27:42;25.48;;;13.52;;
36415;SDS011;22447;44.530;18.620;2023-06-10T00:30:08;24.25;;;14.35;;
36415;SDS011;22447;44.530;18.620;2023-06-10T00:32:35;27.17;;;14.38;;
36415;SDS011;22447;44.530;18.620;2023-06-10T00:35:02;25.08;;;14.27;;
36415;SDS011;22447;44.530;18.620;2023-06-10T00:37:32;26.83;;;14.55;;
36415;SDS011;22447;44.530;18.620;2023-06-10T00:40:01;23.92;;;13.10;;
36415;SDS011;22447;44.530;18.620;2023-06-10T00:42:31;24.15;;;14.52;;
36415;SDS011;22447;44.530;18.620;2023-06-10T00:44:57;22.48;;;13.90;;
36415;SDS011;22447;44.530;18.620;2023-06-10T00:47:23;21.33;;;13.80;;
36415;SDS011;22447;44.530;18.620;2023-06-10T00:49:50;22.38;;;12.55;;
36415;SDS011;22447;44.530;18.620;2023-06-10T00:52:17;26.70;;;13.73;;
36415;SDS011;22447;44.530;18.620;2023-06-10T00:54:45;21.33;;;13.07;;
36415;SDS011;22447;44.530;18.620;2023-06-10T00:57:11;22.90;;;12.32;;
36415;SDS011;22447;44.530;18.620;2023-06-10T00:59:41;20.50;;;13.40;;
36415;SDS011;22447;44.530;18.620;2023-06-10T01:02:12;25.42;;;12.57;;
36415;SDS011;22447;44.530;18.620;2023-06-10T01:04:38;19.30;;;12.85;;
36415;SDS011;22447;44.530;18.620;2023-06-10T01:10:02;24.20;;;12.38;;
36415;SDS011;22447;44.530;18.620;2023-06-10T01:15:37;22.00;;;12.05;;
36415;SDS011;22447;44.530;18.620;2023-06-10T01:18:07;19.63;;;12.07;;
36415;SDS011;22447;44.530;18.620;2023-06-10T01:20:35;21.05;;;11.75;;
36415;SDS011;22447;44.530;18.620;2023-06-10T01:23:05;21.05;;;12.13;;
36415;SDS011;22447;44.530;18.620;2023-06-10T01:25:32;18.33;;;12.10;;
36415;SDS011;22447;44.530;18.620;2023-06-10T01:28:07;18.52;;;12.63;;
36415;SDS011;22447;44.530;18.620;2023-06-10T01:33:14;23.23;;;13.07;;
36415;SDS011;22447;44.530;18.620;2023-06-10T01:35:49;23.67;;;13.15;;
36415;SDS011;22447;44.530;18.620;2023-06-10T01:38:16;22.30;;;13.07;;
36415;SDS011;22447;44.530;18.620;2023-06-10T01:40:45;20.48;;;11.43;;
36415;SDS011;22447;44.530;18.620;2023-06-10T01:43:12;18.20;;;11.75;;
36415;SDS011;22447;44.530;18.620;2023-06-10T01:45:38;21.70;;;11.98;;
36415;SDS011;22447;44.530;18.620;2023-06-10T01:48:04;19.38;;;12.60;;
36415;SDS011;22447;44.530;18.620;2023-06-10T01:50:30;20.98;;;12.35;;
36415;SDS011;22447;44.530;18.620;2023-06-10T01:52:57;20.50;;;13.23;;
36415;SDS011;22447;44.530;18.620;2023-06-10T01:55:23;19.73;;;12.45;;
36415;SDS011;22447;44.530;18.620;2023-06-10T01:57:49;21.63;;;12.18;;
36415;SDS011;22447;44.530;18.620;2023-06-10T02:00:17;21.00;;;12.23;;
36415;SDS011;22447;44.530;18.620;2023-06-10T02:02:44;24.63;;;11.18;;
36415;SDS011;22447;44.530;18.620;2023-06-10T02:05:10;24.38;;;12.43;;
36415;SDS011;22447;44.530;18.620;2023-06-10T02:07:35;20.80;;;12.90;;
36415;SDS011;22447;44.530;18.620;2023-06-10T02:10:01;22.58;;;12.57;;
36415;SDS011;22447;44.530;18.620;2023-06-10T02:12:28;21.23;;;12.07;;
36415;SDS011;22447;44.530;18.620;2023-06-10T02:14:54;28.13;;;12.90;;
36415;SDS011;22447;44.530;18.620;2023-06-10T02:17:20;19.30;;;11.98;;
36415;SDS011;22447;44.530;18.620;2023-06-10T02:19:46;23.73;;;12.23;;
36415;SDS011;22447;44.530;18.620;2023-06-10T02:22:21;16.25;;;11.65;;
36415;SDS011;22447;44.530;18.620;2023-06-10T02:24:48;19.70;;;12.32;;
36415;SDS011;22447;44.530;18.620;2023-06-10T02:27:15;19.77;;;12.63;;
36415;SDS011;22447;44.530;18.620;2023-06-10T02:29:41;20.35;;;12.80;;
36415;SDS011;22447;44.530;18.620;2023-06-10T02:32:09;19.60;;;12.77;;
36415;SDS011;22447;44.530;18.620;2023-06-10T02:34:35;26.05;;;12.38;;
36415;SDS011;22447;44.530;18.620;2023-06-10T02:37:05;22.90;;;13.27;;
36415;SDS011;22447;44.530;18.620;2023-06-10T02:39:31;22.20;;;13.27;;
36415;SDS011;22447;44.530;18.620;2023-06-10T02:41:57;25.77;;;12.52;;
36415;SDS011;22447;44.530;18.620;2023-06-10T02:44:23;24.55;;;12.77;;
36415;SDS011;22447;44.530;18.620;2023-06-10T02:46:49;21.30;;;12.80;;
36415;SDS011;22447;44.530;18.620;2023-06-10T02:49:16;22.67;;;12.35;;
36415;SDS011;22447;44.530;18.620;2023-06-10T02:51:44;24.20;;;15.60;;
36415;SDS011;22447;44.530;18.620;2023-06-10T02:54:10;25.52;;;13.80;;
36415;SDS011;22447;44.530;18.620;2023-06-10T02:56:36;19.90;;;12.93;;
36415;SDS011;22447;44.530;18.620;2023-06-10T02:59:11;24.85;;;12.88;;
36415;SDS011;22447;44.530;18.620;2023-06-10T03:01:37;23.73;;;13.70;;
36415;SDS011;22447;44.530;18.620;2023-06-10T03:04:07;20.43;;;12.77;;
36415;SDS011;22447;44.530;18.620;2023-06-10T03:06:35;21.98;;;13.05;;
36415;SDS011;22447;44.530;18.620;2023-06-10T03:09:16;24.90;;;13.63;;
36415;SDS011;22447;44.530;18.620;2023-06-10T03:11:45;19.10;;;12.38;;
36415;SDS011;22447;44.530;18.620;2023-06-10T03:14:12;26.50;;;12.93;;
36415;SDS011;22447;44.530;18.620;2023-06-10T03:16:38;19.88;;;12.40;;
36415;SDS011;22447;44.530;18.620;2023-06-10T03:19:07;21.92;;;12.35;;
36415;SDS011;22447;44.530;18.620;2023-06-10T03:21:34;23.52;;;13.07;;
36415;SDS011;22447;44.530;18.620;2023-06-10T03:24:04;25.93;;;12.67;;
36415;SDS011;22447;44.530;18.620;2023-06-10T03:26:32;23.27;;;13.00;;
36415;SDS011;22447;44.530;18.620;2023-06-10T03:28:58;27.23;;;12.82;;
36415;SDS011;22447;44.530;18.620;2023-06-10T03:31:24;24.65;;;13.35;;
36415;SDS011;22447;44.530;18.620;2023-06-10T03:33:52;20.92;;;12.55;;
36415;SDS011;22447;44.530;18.620;2023-06-10T03:36:18;26.35;;;12.90;;
36415;SDS011;22447;44.530;18.620;2023-06-10T03:38:46;20.52;;;14.43;;
36415;SDS011;22447;44.530;18.620;2023-06-10T03:41:12;24.75;;;15.13;;
36415;SDS011;22447;44.530;18.620;2023-06-10T03:43:41;27.27;;;15.13;;
36415;SDS011;22447;44.530;18.620;2023-06-10T03:46:07;25.40;;;15.48;;
36415;SDS011;22447;44.530;18.620;2023-06-10T03:48:33;20.85;;;14.95;;
36415;SDS011;22447;44.530;18.620;2023-06-10T03:50:59;27.20;;;15.10;;
36415;SDS011;22447;44.530;18.620;2023-06-10T03:53:25;23.73;;;14.38;;
36415;SDS011;22447;44.530;18.620;2023-06-10T03:55:51;25.08;;;15.15;;
36415;SDS011;22447;44.530;18.620;2023-06-10T03:58:21;27.00;;;15.43;;
36415;SDS011;22447;44.530;18.620;2023-06-10T04:00:47;27.98;;;14.98;;
36415;SDS011;22447;44.530;18.620;2023-06-10T04:03:14;23.02;;;15.13;;
36415;SDS011;22447;44.530;18.620;2023-06-10T04:05:44;32.83;;;14.90;;
36415;SDS011;22447;44.530;18.620;2023-06-10T04:08:10;22.25;;;15.00;;
36415;SDS011;22447;44.530;18.620;2023-06-10T04:10:36;22.92;;;14.13;;
36415;SDS011;22447;44.530;18.620;2023-06-10T04:13:02;20.45;;;13.73;;
36415;SDS011;22447;44.530;18.620;2023-06-10T04:15:34;21.27;;;14.00;;
36415;SDS011;22447;44.530;18.620;2023-06-10T04:18:06;27.42;;;15.88;;
36415;SDS011;22447;44.530;18.620;2023-06-10T04:20:32;19.80;;;15.00;;
36415;SDS011;22447;44.530;18.620;2023-06-10T04:22:58;25.50;;;18.13;;
36415;SDS011;22447;44.530;18.620;2023-06-10T04:25:25;31.50;;;16.10;;
36415;SDS011;22447;44.530;18.620;2023-06-10T04:27:52;25.17;;;14.07;;
36415;SDS011;22447;44.530;18.620;2023-06-10T04:30:18;20.95;;;14.57;;
36415;SDS011;22447;44.530;18.620;2023-06-10T04:32:45;25.45;;;14.27;;
36415;SDS011;22447;44.530;18.620;2023-06-10T04:35:15;24.02;;;15.07;;
36415;SDS011;22447;44.530;18.620;2023-06-10T04:37:42;27.80;;;15.65;;
36415;SDS011;22447;44.530;18.620;2023-06-10T04:40:09;19.35;;;13.80;;
36415;SDS011;22447;44.530;18.620;2023-06-10T04:42:36;23.38;;;15.23;;
36415;SDS011;22447;44.530;18.620;2023-06-10T04:45:02;24.67;;;14.63;;
36415;SDS011;22447;44.530;18.620;2023-06-10T04:47:29;29.80;;;15.85;;
36415;SDS011;22447;44.530;18.620;2023-06-10T04:49:59;25.33;;;15.30;;
36415;SDS011;22447;44.530;18.620;2023-06-10T04:52:25;28.33;;;15.65;;
36415;SDS011;22447;44.530;18.620;2023-06-10T04:54:53;26.45;;;16.25;;
36415;SDS011;22447;44.530;18.620;2023-06-10T04:57:19;22.25;;;14.85;;
36415;SDS011;22447;44.530;18.620;2023-06-10T04:59:46;21.15;;;14.90;;
36415;SDS011;22447;44.530;18.620;2023-06-10T05:02:12;27.08;;;15.30;;
36415;SDS011;22447;44.530;18.620;2023-06-10T05:04:38;22.67;;;15.32;;
36415;SDS011;22447;44.530;18.620;2023-06-10T05:07:04;23.30;;;14.85;;
36415;SDS011;22447;44.530;18.620;2023-06-10T05:09:30;21.15;;;13.43;;
36415;SDS011;22447;44.530;18.620;2023-06-10T05:11:58;22.88;;;13.38;;
36415;SDS011;22447;44.530;18.620;2023-06-10T05:14:24;29.65;;;15.55;;
36415;SDS011;22447;44.530;18.620;2023-06-10T05:16:50;24.30;;;14.13;;
36415;SDS011;22447;44.530;18.620;2023-06-10T05:19:16;25.13;;;14.70;;
36415;SDS011;22447;44.530;18.620;2023-06-10T05:21:43;25.60;;;14.60;;
36415;SDS011;22447;44.530;18.620;2023-06-10T05:24:09;24.27;;;15.07;;
36415;SDS011;22447;44.530;18.620;2023-06-10T05:26:36;21.70;;;13.68;;
36415;SDS011;22447;44.530;18.620;2023-06-10T05:29:06;19.77;;;13.60;;
36415;SDS011;22447;44.530;18.620;2023-06-10T05:31:34;23.48;;;14.85;;
36415;SDS011;22447;44.530;18.620;2023-06-10T05:34:00;23.48;;;14.95;;
36415;SDS011;22447;44.530;18.620;2023-06-10T05:36:26;21.15;;;14.35;;
36415;SDS011;22447;44.530;18.620;2023-06-10T05:38:52;20.35;;;14.02;;
36415;SDS011;22447;44.530;18.620;2023-06-10T05:41:19;21.90;;;14.82;;
36415;SDS011;22447;44.530;18.620;2023-06-10T05:43:47;20.25;;;14.70;;
36415;SDS011;22447;44.530;18.620;2023-06-10T05:46:13;29.15;;;14.60;;
36415;SDS011;22447;44.530;18.620;2023-06-10T05:48:39;22.92;;;14.48;;
36415;SDS011;22447;44.530;18.620;2023-06-10T05:51:05;24.08;;;13.48;;
36415;SDS011;22447;44.530;18.620;2023-06-10T05:53:31;21.73;;;14.43;;
36415;SDS011;22447;44.530;18.620;2023-06-10T05:55:57;19.52;;;14.23;;
36415;SDS011;22447;44.530;18.620;2023-06-10T05:58:23;19.50;;;12.70;;
36415;SDS011;22447;44.530;18.620;2023-06-10T06:00:49;21.40;;;13.98;;
36415;SDS011;22447;44.530;18.620;2023-06-10T06:03:16;20.40;;;14.55;;
36415;SDS011;22447;44.530;18.620;2023-06-10T06:05:42;28.05;;;16.17;;
36415;SDS011;22447;44.530;18.620;2023-06-10T06:08:09;24.45;;;15.48;;
36415;SDS011;22447;44.530;18.620;2023-06-10T06:10:35;27.65;;;14.20;;
36415;SDS011;22447;44.530;18.620;2023-06-10T06:13:01;26.08;;;15.25;;
36415;SDS011;22447;44.530;18.620;2023-06-10T06:15:27;20.17;;;14.05;;
36415;SDS011;22447;44.530;18.620;2023-06-10T06:17:53;24.17;;;15.00;;
36415;SDS011;22447;44.530;18.620;2023-06-10T06:20:19;25.67;;;15.65;;
36415;SDS011;22447;44.530;18.620;2023-06-10T06:22:45;21.30;;;14.95;;
36415;SDS011;22447;44.530;18.620;2023-06-10T06:25:12;23.05;;;15.38;;
36415;SDS011;22447;44.530;18.620;2023-06-10T06:27:38;25.17;;;14.52;;
36415;SDS011;22447;44.530;18.620;2023-06-10T06:30:04;20.67;;;14.63;;
36415;SDS011;22447;44.530;18.620;2023-06-10T06:32:31;26.77;;;16.95;;
36415;SDS011;22447;44.530;18.620;2023-06-10T06:34:57;25.15;;;14.55;;
36415;SDS011;22447;44.530;18.620;2023-06-10T06:37:24;19.70;;;14.40;;
36415;SDS011;22447;44.530;18.620;2023-06-10T06:39:59;25.02;;;14.15;;
36415;SDS011;22447;44.530;18.620;2023-06-10T06:42:25;22.48;;;14.50;;
36415;SDS011;22447;44.530;18.620;2023-06-10T06:44:59;24.05;;;13.32;;
36415;SDS011;22447;44.530;18.620;2023-06-10T06:47:25;25.08;;;13.52;;
36415;SDS011;22447;44.530;18.620;2023-06-10T06:49:51;21.02;;;13.93;;
36415;SDS011;22447;44.530;18.620;2023-06-10T06:52:17;16.65;;;12.30;;
36415;SDS011;22447;44.530;18.620;2023-06-10T06:54:44;20.13;;;12.65;;
36415;SDS011;22447;44.530;18.620;2023-06-10T06:57:10;18.33;;;11.77;;
36415;SDS011;22447;44.530;18.620;2023-06-10T06:59:36;19.85;;;12.65;;
36415;SDS011;22447;44.530;18.620;2023-06-10T07:02:02;24.63;;;12.32;;
36415;SDS011;22447;44.530;18.620;2023-06-10T07:04:28;18.63;;;12.35;;
36415;SDS011;22447;44.530;18.620;2023-06-10T07:06:55;22.05;;;11.65;;
36415;SDS011;22447;44.530;18.620;2023-06-10T07:09:21;21.42;;;11.98;;
36415;SDS011;22447;44.530;18.620;2023-06-10T07:11:47;13.77;;;9.68;;
36415;SDS011;22447;44.530;18.620;2023-06-10T07:14:13;17.45;;;9.93;;
36415;SDS011;22447;44.530;18.620;2023-06-10T07:16:39;15.52;;;9.38;;
36415;SDS011;22447;44.530;18.620;2023-06-10T07:19:05;15.63;;;9.50;;
36415;SDS011;22447;44.530;18.620;2023-06-10T07:21:30;16.42;;;9.55;;
36415;SDS011;22447;44.530;18.620;2023-06-10T07:23:57;19.45;;;10.05;;
36415;SDS011;22447;44.530;18.620;2023-06-10T07:26:23;20.52;;;11.30;;
36415;SDS011;22447;44.530;18.620;2023-06-10T07:28:50;21.45;;;10.93;;
36415;SDS011;22447;44.530;18.620;2023-06-10T07:31:16;19.95;;;11.88;;
36415;SDS011;22447;44.530;18.620;2023-06-10T07:33:42;19.00;;;10.38;;
36415;SDS011;22447;44.530;18.620;2023-06-10T07:36:09;17.42;;;11.07;;
36415;SDS011;22447;44.530;18.620;2023-06-10T07:38:35;19.40;;;11.20;;
36415;SDS011;22447;44.530;18.620;2023-06-10T07:41:01;18.40;;;10.95;;
36415;SDS011;22447;44.530;18.620;2023-06-10T07:43:27;16.48;;;10.60;;
36415;SDS011;22447;44.530;18.620;2023-06-10T07:45:53;16.77;;;11.48;;
36415;SDS011;22447;44.530;18.620;2023-06-10T07:48:19;22.95;;;12.45;;
36415;SDS011;22447;44.530;18.620;2023-06-10T07:50:45;21.55;;;11.95;;
36415;SDS011;22447;44.530;18.620;2023-06-10T07:53:11;24.05;;;12.52;;
36415;SDS011;22447;44.530;18.620;2023-06-10T07:55:37;21.20;;;12.07;;
36415;SDS011;22447;44.530;18.620;2023-06-10T07:58:03;27.73;;;14.60;;
36415;SDS011;22447;44.530;18.620;2023-06-10T08:00:29;33.38;;;15.40;;
36415;SDS011;22447;44.530;18.620;2023-06-10T08:02:55;24.35;;;13.75;;
36415;SDS011;22447;44.530;18.620;2023-06-10T08:05:21;32.22;;;15.75;;
36415;SDS011;22447;44.530;18.620;2023-06-10T08:07:47;30.73;;;14.93;;
36415;SDS011;22447;44.530;18.620;2023-06-10T08:10:13;30.95;;;16.63;;
36415;SDS011;22447;44.530;18.620;2023-06-10T08:12:39;25.65;;;15.25;;
36415;SDS011;22447;44.530;18.620;2023-06-10T08:15:05;26.48;;;15.70;;
36415;SDS011;22447;44.530;18.620;2023-06-10T08:17:31;24.52;;;13.18;;
36415;SDS011;22447;44.530;18.620;2023-06-10T08:19:57;26.15;;;15.15;;
36415;SDS011;22447;44.530;18.620;2023-06-10T08:22:23;25.08;;;13.93;;
36415;SDS011;22447;44.530;18.620;2023-06-10T08:24:49;30.35;;;14.35;;
36415;SDS011;22447;44.530;18.620;2023-06-10T08:27:15;31.27;;;15.73;;
36415;SDS011;22447;44.530;18.620;2023-06-10T08:29:41;27.65;;;15.88;;
36415;SDS011;22447;44.530;18.620;2023-06-10T08:32:07;33.35;;;16.48;;
36415;SDS011;22447;44.530;18.620;2023-06-10T08:34:33;27.35;;;14.45;;
36415;SDS011;22447;44.530;18.620;2023-06-10T08:37:03;24.77;;;15.50;;
36415;SDS011;22447;44.530;18.620;2023-06-10T08:39:29;25.45;;;15.90;;
36415;SDS011;22447;44.530;18.620;2023-06-10T08:45:05;29.75;;;15.20;;
36415;SDS011;22447;44.530;18.620;2023-06-10T08:47:36;21.40;;;12.60;;
36415;SDS011;22447;44.530;18.620;2023-06-10T08:50:06;19.15;;;12.07;;
36415;SDS011;22447;44.530;18.620;2023-06-10T08:52:35;14.68;;;10.02;;
36415;SDS011;22447;44.530;18.620;2023-06-10T08:55:12;20.02;;;11.23;;
36415;SDS011;22447;44.530;18.620;2023-06-10T08:57:41;19.00;;;10.32;;
36415;SDS011;22447;44.530;18.620;2023-06-10T09:00:09;23.50;;;13.50;;
36415;SDS011;22447;44.530;18.620;2023-06-10T09:02:37;23.63;;;13.55;;
36415;SDS011;22447;44.530;18.620;2023-06-10T09:05:03;23.05;;;12.63;;
36415;SDS011;22447;44.530;18.620;2023-06-10T09:07:30;21.48;;;12.25;;
36415;SDS011;22447;44.530;18.620;2023-06-10T09:09:56;21.85;;;11.60;;
36415;SDS011;22447;44.530;18.620;2023-06-10T09:12:24;19.75;;;9.68;;
36415;SDS011;22447;44.530;18.620;2023-06-10T09:14:50;13.63;;;8.52;;
36415;SDS011;22447;44.530;18.620;2023-06-10T09:17:16;15.70;;;9.73;;
36415;SDS011;22447;44.530;18.620;2023-06-10T09:19:43;15.07;;;8.35;;
36415;SDS011;22447;44.530;18.620;2023-06-10T09:22:10;12.43;;;7.88;;
36415;SDS011;22447;44.530;18.620;2023-06-10T09:24:36;10.15;;;7.22;;
36415;SDS011;22447;44.530;18.620;2023-06-10T09:27:04;12.57;;;7.30;;
36415;SDS011;22447;44.530;18.620;2023-06-10T09:29:45;10.63;;;7.40;;
36415;SDS011;22447;44.530;18.620;2023-06-10T09:32:18;10.27;;;7.28;;
36415;SDS011;22447;44.530;18.620;2023-06-10T09:34:45;11.38;;;7.00;;
36415;SDS011;22447;44.530;18.620;2023-06-10T09:37:12;9.52;;;6.97;;
36415;SDS011;22447;44.530;18.620;2023-06-10T09:39:41;11.80;;;6.97;;
36415;SDS011;22447;44.530;18.620;2023-06-10T09:42:19;7.30;;;6.10;;
36415;SDS011;22447;44.530;18.620;2023-06-10T09:44:49;10.43;;;6.47;;
36415;SDS011;22447;44.530;18.620;2023-06-10T09:47:22;9.63;;;7.43;;
36415;SDS011;22447;44.530;18.620;2023-06-10T09:49:48;9.38;;;7.13;;
36415;SDS011;22447;44.530;18.620;2023-06-10T09:52:25;10.18;;;7.28;;
36415;SDS011;22447;44.530;18.620;2023-06-10T09:54:52;13.40;;;7.65;;
36415;SDS011;22447;44.530;18.620;2023-06-10T09:57:19;13.07;;;7.80;;
36415;SDS011;22447;44.530;18.620;2023-06-10T09:59:46;11.73;;;7.68;;
36415;SDS011;22447;44.530;18.620;2023-06-10T10:02:15;10.68;;;7.95;;
36415;SDS011;22447;44.530;18.620;2023-06-10T10:04:42;15.00;;;7.97;;
36415;SDS011;22447;44.530;18.620;2023-06-10T10:07:12;16.48;;;8.23;;
36415;SDS011;22447;44.530;18.620;2023-06-10T10:09:39;12.90;;;7.85;;
36415;SDS011;22447;44.530;18.620;2023-06-10T10:12:10;13.35;;;8.35;;
36415;SDS011;22447;44.530;18.620;2023-06-10T10:14:38;13.73;;;7.70;;
36415;SDS011;22447;44.530;18.620;2023-06-10T10:17:07;14.68;;;7.60;;
36415;SDS011;22447;44.530;18.620;2023-06-10T10:19:58;16.27;;;9.87;;
36415;SDS011;22447;44.530;18.620;2023-06-10T10:22:37;18.40;;;8.98;;
36415;SDS011;22447;44.530;18.620;2023-06-10T10:25:11;18.45;;;8.57;;
36415;SDS011;22447;44.530;18.620;2023-06-10T10:27:48;9.25;;;6.60;;
36415;SDS011;22447;44.530;18.620;2023-06-10T10:35:22;9.68;;;6.90;;
36415;SDS011;22447;44.530;18.620;2023-06-10T10:37:53;9.68;;;6.40;;
36415;SDS011;22447;44.530;18.620;2023-06-10T10:42:47;11.50;;;8.35;;
36415;SDS011;22447;44.530;18.620;2023-06-10T10:45:14;8.95;;;7.95;;
36415;SDS011;22447;44.530;18.620;2023-06-10T10:47:41;13.43;;;8.88;;
36415;SDS011;22447;44.530;18.620;2023-06-10T10:50:19;12.52;;;7.55;;
36415;SDS011;22447;44.530;18.620;2023-06-10T10:52:50;11.80;;;8.00;;
36415;SDS011;22447;44.530;18.620;2023-06-10T10:55:19;9.95;;;7.93;;
36415;SDS011;22447;44.530;18.620;2023-06-10T10:57:45;10.18;;;8.10;;
36415;SDS011;22447;44.530;18.620;2023-06-10T11:00:27;11.38;;;7.82;;
36415;SDS011;22447;44.530;18.620;2023-06-10T11:03:04;18.02;;;6.30;;
36415;SDS011;22447;44.530;18.620;2023-06-10T11:08:03;11.00;;;4.03;;
36415;SDS011;22447;44.530;18.620;2023-06-10T11:10:36;11.75;;;3.80;;
36415;SDS011;22447;44.530;18.620;2023-06-10T11:13:07;19.75;;;5.88;;
36415;SDS011;22447;44.530;18.620;2023-06-10T11:15:33;17.65;;;5.60;;
36415;SDS011;22447;44.530;18.620;2023-06-10T11:18:23;18.67;;;5.68;;
36415;SDS011;22447;44.530;18.620;2023-06-10T11:20:52;12.57;;;4.88;;
36415;SDS011;22447;44.530;18.620;2023-06-10T11:23:26;9.52;;;3.95;;
36415;SDS011;22447;44.530;18.620;2023-06-10T11:31:22;10.40;;;4.30;;
36415;SDS011;22447;44.530;18.620;2023-06-10T11:36:25;11.45;;;4.55;;
36415;SDS011;22447;44.530;18.620;2023-06-10T11:38:59;15.90;;;4.60;;
36415;SDS011;22447;44.530;18.620;2023-06-10T11:41:28;7.30;;;4.57;;
36415;SDS011;22447;44.530;18.620;2023-06-10T11:43:56;7.43;;;4.35;;
36415;SDS011;22447;44.530;18.620;2023-06-10T11:46:27;12.20;;;4.28;;
36415;SDS011;22447;44.530;18.620;2023-06-10T11:48:53;9.88;;;5.32;;
36415;SDS011;22447;44.530;18.620;2023-06-10T11:51:20;8.30;;;4.97;;
36415;SDS011;22447;44.530;18.620;2023-06-10T11:53:47;8.38;;;4.93;;
36415;SDS011;22447;44.530;18.620;2023-06-10T11:56:19;15.98;;;7.28;;
36415;SDS011;22447;44.530;18.620;2023-06-10T11:58:55;10.82;;;6.63;;
36415;SDS011;22447;44.530;18.620;2023-06-10T12:01:23;14.38;;;7.53;;
36415;SDS011;22447;44.530;18.620;2023-06-10T12:03:56;20.15;;;7.47;;
36415;SDS011;22447;44.530;18.620;2023-06-10T12:06:23;10.95;;;6.53;;
36415;SDS011;22447;44.530;18.620;2023-06-10T12:08:49;10.57;;;6.55;;
36415;SDS011;22447;44.530;18.620;2023-06-10T12:11:15;11.45;;;5.45;;
36415;SDS011;22447;44.530;18.620;2023-06-10T12:13:47;8.55;;;5.35;;
36415;SDS011;22447;44.530;18.620;2023-06-10T12:16:16;9.13;;;5.00;;
36415;SDS011;22447;44.530;18.620;2023-06-10T12:18:46;6.45;;;4.88;;
36415;SDS011;22447;44.530;18.620;2023-06-10T12:21:45;7.78;;;5.35;;
36415;SDS011;22447;44.530;18.620;2023-06-10T12:24:08;6.03;;;5.03;;
36415;SDS011;22447;44.530;18.620;2023-06-10T12:26:35;13.23;;;5.80;;
36415;SDS011;22447;44.530;18.620;2023-06-10T12:31:55;9.05;;;4.93;;
36415;SDS011;22447;44.530;18.620;2023-06-10T12:34:38;6.57;;;3.88;;
36415;SDS011;22447;44.530;18.620;2023-06-10T12:37:06;7.22;;;4.13;;
36415;SDS011;22447;44.530;18.620;2023-06-10T12:39:38;3.90;;;3.28;;
36415;SDS011;22447;44.530;18.620;2023-06-10T12:42:05;6.72;;;4.00;;
36415;SDS011;22447;44.530;18.620;2023-06-10T12:44:40;4.03;;;2.97;;
36415;SDS011;22447;44.530;18.620;2023-06-10T12:47:12;8.65;;;3.75;;
36415;SDS011;22447;44.530;18.620;2023-06-10T12:49:38;6.60;;;3.40;;
36415;SDS011;22447;44.530;18.620;2023-06-10T12:52:05;7.25;;;3.45;;
36415;SDS011;22447;44.530;18.620;2023-06-10T12:54:32;6.13;;;3.65;;
36415;SDS011;22447;44.530;18.620;2023-06-10T12:56:58;6.45;;;3.53;;
36415;SDS011;22447;44.530;18.620;2023-06-10T12:59:24;4.10;;;3.10;;
36415;SDS011;22447;44.530;18.620;2023-06-10T13:01:50;8.75;;;3.85;;
36415;SDS011;22447;44.530;18.620;2023-06-10T13:04:17;28.02;;;18.90;;
36415;SDS011;22447;44.530;18.620;2023-06-10T13:06:43;9.27;;;5.15;;
36415;SDS011;22447;44.530;18.620;2023-06-10T13:09:09;5.35;;;4.20;;
36415;SDS011;22447;44.530;18.620;2023-06-10T13:11:35;8.77;;;3.88;;
36415;SDS011;22447;44.530;18.620;2023-06-10T13:14:02;11.15;;;4.15;;
36415;SDS011;22447;44.530;18.620;2023-06-10T13:16:30;7.00;;;3.47;;
36415;SDS011;22447;44.530;18.620;2023-06-10T13:18:57;6.10;;;3.80;;
36415;SDS011;22447;44.530;18.620;2023-06-10T13:21:23;4.45;;;3.80;;
36415;SDS011;22447;44.530;18.620;2023-06-10T13:23:49;8.07;;;4.22;;
36415;SDS011;22447;44.530;18.620;2023-06-10T13:26:16;6.47;;;4.07;;
36415;SDS011;22447;44.530;18.620;2023-06-10T13:28:45;8.38;;;4.80;;
36415;SDS011;22447;44.530;18.620;2023-06-10T13:31:11;10.40;;;4.97;;
36415;SDS011;22447;44.530;18.620;2023-06-10T13:33:37;7.72;;;5.05;;
36415;SDS011;22447;44.530;18.620;2023-06-10T13:36:03;11.75;;;5.85;;
36415;SDS011;22447;44.530;18.620;2023-06-10T13:38:29;6.93;;;4.75;;
36415;SDS011;22447;44.530;18.620;2023-06-10T13:40:55;11.93;;;5.88;;
36415;SDS011;22447;44.530;18.620;2023-06-10T13:43:21;12.65;;;6.05;;
36415;SDS011;22447;44.530;18.620;2023-06-10T13:45:47;7.72;;;5.38;;
36415;SDS011;22447;44.530;18.620;2023-06-10T13:48:13;7.10;;;5.38;;
36415;SDS011;22447;44.530;18.620;2023-06-10T13:50:39;6.93;;;5.40;;
36415;SDS011;22447;44.530;18.620;2023-06-10T13:53:05;8.45;;;5.55;;
36415;SDS011;22447;44.530;18.620;2023-06-10T13:55:31;10.18;;;7.28;;
36415;SDS011;22447;44.530;18.620;2023-06-10T13:57:57;7.93;;;6.35;;
36415;SDS011;22447;44.530;18.620;2023-06-10T14:00:23;7.88;;;5.70;;
36415;SDS011;22447;44.530;18.620;2023-06-10T14:02:49;9.30;;;5.65;;
36415;SDS011;22447;44.530;18.620;2023-06-10T14:05:15;8.65;;;6.53;;
36415;SDS011;22447;44.530;18.620;2023-06-10T14:07:40;7.78;;;5.38;;
36415;SDS011;22447;44.530;18.620;2023-06-10T14:10:07;6.00;;;4.65;;
36415;SDS011;22447;44.530;18.620;2023-06-10T14:12:34;5.32;;;4.75;;
36415;SDS011;22447;44.530;18.620;2023-06-10T14:15:00;7.75;;;5.40;;
36415;SDS011;22447;44.530;18.620;2023-06-10T14:17:26;5.45;;;4.88;;
36415;SDS011;22447;44.530;18.620;2023-06-10T14:19:52;6.22;;;5.07;;
36415;SDS011;22447;44.530;18.620;2023-06-10T14:22:18;4.93;;;4.38;;
36415;SDS011;22447;44.530;18.620;2023-06-10T14:24:44;8.35;;;5.38;;
36415;SDS011;22447;44.530;18.620;2023-06-10T14:27:11;8.20;;;5.20;;
36415;SDS011;22447;44.530;18.620;2023-06-10T14:29:37;7.80;;;4.85;;
36415;SDS011;22447;44.530;18.620;2023-06-10T14:32:03;9.88;;;5.72;;
36415;SDS011;22447;44.530;18.620;2023-06-10T14:34:30;7.95;;;4.65;;
36415;SDS011;22447;44.530;18.620;2023-06-10T14:36:59;7.30;;;4.85;;
36415;SDS011;22447;44.530;18.620;2023-06-10T14:39:25;10.70;;;5.20;;
36415;SDS011;22447;44.530;18.620;2023-06-10T14:41:51;11.90;;;5.22;;
36415;SDS011;22447;44.530;18.620;2023-06-10T14:44:20;7.07;;;5.47;;
36415;SDS011;22447;44.530;18.620;2023-06-10T14:46:46;8.90;;;5.20;;
36415;SDS011;22447;44.530;18.620;2023-06-10T14:49:12;10.48;;;5.93;;
36415;SDS011;22447;44.530;18.620;2023-06-10T14:51:38;7.82;;;5.35;;